Time;durP1;ratioP1;P1;durP2;ratioP2;P2;SDS_P1;SDS_P2;PMS_P1;PMS_P2;Temp;Humidity;BMP_temperature;BMP_pressure;BME280_temperature;BME280_humidity;BME280_pressure;Samples;Min_cycle;Max_cycle;Signal;HPM_P1;HPM_P2
2022/10/22 00:00:48;;;;;;;2.97;0.63;;;;;;;11.84;100.00;95642.22;5022964;28;24799;-75
2022/10/22 00:03:14;;;;;;;1.83;0.30;;;;;;;11.80;100.00;95651.09;5022620;28;24463;-74
2022/10/22 00:05:41;;;;;;;4.57;0.40;;;;;;;11.73;100.00;95651.66;5027382;28;24455;-75
2022/10/22 00:08:07;;;;;;;2.92;0.47;;;;;;;11.72;100.00;95647.41;5029088;28;24448;-76
2022/10/22 00:10:34;;;;;;;1.48;0.40;;;;;;;11.67;100.00;95652.06;5026632;28;24448;-75
2022/10/22 00:13:00;;;;;;;6.47;0.52;;;;;;;11.58;100.00;95661.31;5028923;28;24447;-74
2022/10/22 00:15:28;;;;;;;5.30;0.60;;;;;;;11.55;100.00;95661.50;5028272;28;24447;-75
2022/10/22 00:17:55;;;;;;;2.15;0.50;;;;;;;11.49;100.00;95667.09;5026825;28;24995;-75
2022/10/22 00:20:21;;;;;;;1.40;0.40;;;;;;;11.55;100.00;95654.56;5025552;28;24439;-75
2022/10/22 00:22:48;;;;;;;0.90;0.50;;;;;;;11.59;100.00;95650.81;5022319;28;24491;-75
2022/10/22 00:25:15;;;;;;;3.85;0.65;;;;;;;11.53;100.00;95653.00;5022767;28;24451;-75
2022/10/22 00:27:41;;;;;;;2.03;0.60;;;;;;;11.49;100.00;95657.56;5020597;28;24463;-76
2022/10/22 00:30:09;;;;;;;1.75;0.57;;;;;;;11.49;100.00;95651.53;5028946;28;24973;-72
2022/10/22 00:32:36;;;;;;;3.20;0.40;;;;;;;11.51;100.00;95655.69;5016441;28;24543;-75
2022/10/22 00:35:04;;;;;;;2.70;0.60;;;;;;;11.51;100.00;95663.47;5025564;28;24455;-74
2022/10/22 00:37:31;;;;;;;2.90;0.50;;;;;;;11.57;100.00;95659.66;5020642;28;24543;-74
2022/10/22 00:39:57;;;;;;;2.10;0.50;;;;;;;11.56;100.00;95652.78;5031926;28;24444;-75
2022/10/22 00:42:28;;;;;;;1.92;0.50;;;;;;;11.72;100.00;95645.63;5022816;28;24466;-75
2022/10/22 00:45:14;;;;;;;1.67;0.50;;;;;;;11.76;100.00;95633.28;5028160;28;24455;-74
2022/10/22 00:47:44;;;;;;;0.95;0.32;;;;;;;11.90;100.00;95627.13;5024938;28;24459;-73
2022/10/22 00:50:15;;;;;;;1.20;0.60;;;;;;;11.90;100.00;95617.56;5030998;28;24527;-73
2022/10/22 00:52:42;;;;;;;1.05;0.43;;;;;;;11.92;100.00;95623.50;5024788;28;25015;-75
2022/10/22 00:55:09;;;;;;;1.67;0.45;;;;;;;11.83;100.00;95613.75;5025845;28;24459;-73
2022/10/22 00:57:36;;;;;;;2.17;0.43;;;;;;;11.75;100.00;95606.47;5030133;28;24476;-74
2022/10/22 01:00:05;;;;;;;3.53;0.60;;;;;;;11.72;100.00;95604.13;5032607;28;24514;-72
2022/10/22 01:02:31;;;;;;;1.10;0.50;;;;;;;11.71;100.00;95588.63;5020535;28;24868;-73
2022/10/22 01:04:59;;;;;;;1.00;0.40;;;;;;;11.70;100.00;95593.00;5027441;28;24454;-74
2022/10/22 01:07:26;;;;;;;1.40;0.50;;;;;;;11.73;100.00;95587.59;5030374;28;24455;-73
2022/10/22 01:10:02;;;;;;;2.35;0.45;;;;;;;11.71;100.00;95588.63;5026898;28;25019;-73
2022/10/22 01:12:40;;;;;;;1.15;0.30;;;;;;;11.72;100.00;95582.53;5030068;28;24451;-73
2022/10/22 01:15:16;;;;;;;1.73;0.52;;;;;;;11.66;100.00;95570.00;5027366;28;24450;-73
2022/10/22 01:17:50;;;;;;;0.40;0.30;;;;;;;11.73;100.00;95574.63;5025341;28;24452;-73
2022/10/22 01:20:38;;;;;;;0.60;0.30;;;;;;;11.70;100.00;95590.41;5028566;28;24447;-73
2022/10/22 01:23:21;;;;;;;2.05;0.40;;;;;;;11.64;100.00;95585.63;5028639;28;24458;-73
2022/10/22 01:25:54;;;;;;;3.38;0.45;;;;;;;11.55;100.00;95578.53;5025581;28;24450;-73
2022/10/22 01:28:36;;;;;;;1.05;0.40;;;;;;;11.52;100.00;95602.06;5028355;28;24470;-73
2022/10/22 01:31:05;;;;;;;1.05;0.35;;;;;;;11.52;100.00;95622.81;5024830;28;24440;-74
2022/10/22 01:33:32;;;;;;;2.95;0.60;;;;;;;11.38;100.00;95624.59;5031475;28;24999;-72
2022/10/22 01:35:59;;;;;;;0.60;0.30;;;;;;;11.37;100.00;95625.53;5027725;28;24447;-74
2022/10/22 01:38:27;;;;;;;1.42;0.50;;;;;;;11.38;100.00;95634.97;5028111;28;24840;-73
2022/10/22 01:40:54;;;;;;;2.08;0.70;;;;;;;11.44;100.00;95645.84;5026342;28;24443;-75
2022/10/22 01:43:21;;;;;;;1.05;0.35;;;;;;;11.44;100.00;95646.69;5023791;28;24831;-73
2022/10/22 01:45:51;;;;;;;1.30;0.55;;;;;;;11.48;100.00;95655.09;5028323;28;24447;-75
2022/10/22 01:48:33;;;;;;;1.90;0.50;;;;;;;11.51;100.00;95642.75;5027380;28;24463;-73
2022/10/22 01:51:14;;;;;;;1.00;0.50;;;;;;;11.60;100.00;95631.72;5025771;28;24539;-72
2022/10/22 01:53:49;;;;;;;2.28;0.60;;;;;;;11.62;100.00;95636.81;5025847;28;24442;-72
2022/10/22 01:56:36;;;;;;;1.27;0.40;;;;;;;11.59;100.00;95637.03;5028212;28;24500;-72
2022/10/22 01:59:10;;;;;;;0.90;0.40;;;;;;;11.63;100.00;95639.28;5027646;28;24455;-72
2022/10/22 02:01:47;;;;;;;2.13;0.60;;;;;;;11.57;100.00;95644.91;5026808;28;24436;-73
2022/10/22 02:04:19;;;;;;;1.42;0.52;;;;;;;11.58;100.00;95646.56;5030932;28;24434;-72
2022/10/22 02:06:48;;;;;;;1.70;0.30;;;;;;;11.52;100.00;95641.78;5025446;28;24439;-74
2022/10/22 02:09:17;;;;;;;2.08;0.50;;;;;;;11.46;100.00;95638.78;5027376;28;25131;-73
2022/10/22 02:11:46;;;;;;;1.27;0.40;;;;;;;11.60;100.00;95655.06;5023028;28;24436;-73
2022/10/22 02:14:14;;;;;;;2.80;0.70;;;;;;;11.48;100.00;95649.91;5016439;28;24463;-73
2022/10/22 02:16:45;;;;;;;0.50;0.30;;;;;;;11.48;100.00;95657.69;5029411;28;25051;-73
2022/10/22 02:19:15;;;;;;;0.90;0.30;;;;;;;11.47;100.00;95661.22;5031181;28;24446;-72
2022/10/22 02:21:42;;;;;;;1.00;0.30;;;;;;;11.46;100.00;95660.38;5024022;28;24435;-73
2022/10/22 02:24:09;;;;;;;0.88;0.32;;;;;;;11.45;100.00;95660.47;5029090;28;24996;-75
2022/10/22 02:26:39;;;;;;;1.35;0.55;;;;;;;11.38;100.00;95647.94;5021819;28;24441;-72
2022/10/22 02:29:13;;;;;;;0.90;0.30;;;;;;;11.41;100.00;95640.88;5019221;28;24456;-72
2022/10/22 02:31:45;;;;;;;0.93;0.25;;;;;;;11.44;100.00;95627.69;5022301;28;20786;-75
2022/10/22 02:34:15;;;;;;;1.23;0.40;;;;;;;11.51;100.00;95628.94;5019891;28;24451;-72
2022/10/22 02:36:43;;;;;;;1.33;0.30;;;;;;;11.50;100.00;95629.88;5023759;28;24600;-73
2022/10/22 02:39:12;;;;;;;2.30;0.30;;;;;;;11.57;100.00;95631.13;5030493;28;24810;-73
2022/10/22 02:41:39;;;;;;;4.60;0.30;;;;;;;11.59;100.00;95629.25;5026464;28;24455;-73
2022/10/22 02:44:09;;;;;;;0.70;0.32;;;;;;;11.74;100.00;95615.19;5023450;28;24435;-73
2022/10/22 02:46:37;;;;;;;1.63;0.40;;;;;;;11.76;100.00;95607.31;5028011;28;24428;-72
2022/10/22 02:49:05;;;;;;;4.97;0.40;;;;;;;11.86;100.00;95605.75;5025659;28;24452;-73
2022/10/22 02:51:32;;;;;;;2.87;0.40;;;;;;;11.95;100.00;95618.09;5017916;28;24458;-73
2022/10/22 02:53:58;;;;;;;0.57;0.30;;;;;;;11.87;100.00;95635.97;5029209;28;24528;-73
2022/10/22 02:56:25;;;;;;;1.75;0.47;;;;;;;11.96;100.00;95627.53;5026691;28;24462;-73
2022/10/22 02:58:51;;;;;;;4.20;0.35;;;;;;;11.84;100.00;95639.59;5024955;28;24459;-74
2022/10/22 03:01:18;;;;;;;0.40;0.20;;;;;;;11.84;100.00;95650.00;5029251;28;24450;-74
2022/10/22 03:03:44;;;;;;;0.73;0.40;;;;;;;11.80;100.00;95639.91;5030532;28;24455;-74
2022/10/22 03:06:12;;;;;;;1.05;0.32;;;;;;;11.86;100.00;95635.16;5023435;28;24440;-72
2022/10/22 03:08:38;;;;;;;1.80;0.40;;;;;;;11.81;100.00;95632.00;5029183;28;25016;-73
2022/10/22 03:11:05;;;;;;;1.70;0.50;;;;;;;11.74;100.00;95633.38;5023025;28;24467;-72
2022/10/22 03:13:32;;;;;;;0.80;0.40;;;;;;;11.63;100.00;95633.28;5027472;28;24447;-73
2022/10/22 03:15:58;;;;;;;3.45;0.40;;;;;;;11.60;100.00;95631.72;5022820;28;24467;-72
2022/10/22 03:18:25;;;;;;;1.98;0.60;;;;;;;11.59;100.00;95631.84;5027315;28;24814;-73
2022/10/22 03:21:01;;;;;;;1.98;0.38;;;;;;;11.52;100.00;95648.75;5026591;28;24448;-72
2022/10/22 03:23:29;;;;;;;1.07;0.50;;;;;;;11.46;100.00;95639.63;5030001;28;24454;-72
2022/10/22 03:25:55;;;;;;;1.50;0.45;;;;;;;11.47;100.00;95640.47;5028837;28;24459;-72
2022/10/22 03:28:22;;;;;;;3.03;0.35;;;;;;;11.45;100.00;95642.31;5028430;28;24464;-72
2022/10/22 03:30:48;;;;;;;0.90;0.40;;;;;;;11.49;100.00;95633.41;5027558;28;24459;-72
2022/10/22 03:33:15;;;;;;;0.32;0.20;;;;;;;11.51;100.00;95627.19;5029733;28;24813;-72
2022/10/22 03:35:46;;;;;;;0.88;0.30;;;;;;;11.54;100.00;95632.16;5026990;28;24460;-72
2022/10/22 03:38:14;;;;;;;1.02;0.32;;;;;;;11.52;100.00;95639.19;5028055;28;24455;-72
2022/10/22 03:40:44;;;;;;;1.15;0.40;;;;;;;11.64;100.00;95637.53;5016956;28;24448;-72
2022/10/22 03:43:10;;;;;;;1.20;0.40;;;;;;;11.63;100.00;95631.50;5019962;28;25013;-72
2022/10/22 03:45:37;;;;;;;2.40;0.40;;;;;;;11.72;100.00;95635.25;5026481;28;24458;-72
2022/10/22 03:48:04;;;;;;;2.00;0.50;;;;;;;11.66;100.00;95645.22;5026095;28;24428;-73
2022/10/22 03:50:30;;;;;;;2.10;0.43;;;;;;;11.44;100.00;95664.00;5021103;28;25248;-72
2022/10/22 03:52:58;;;;;;;3.00;0.50;;;;;;;11.38;100.00;95645.34;5023824;28;24516;-73
2022/10/22 03:55:25;;;;;;;1.90;0.32;;;;;;;11.40;100.00;95640.06;5018413;28;25211;-72
2022/10/22 03:57:53;;;;;;;0.95;0.30;;;;;;;11.42;100.00;95648.56;5024475;28;25018;-72
2022/10/22 04:00:20;;;;;;;2.50;0.40;;;;;;;11.45;100.00;95632.78;5028890;28;24452;-73
2022/10/22 04:02:46;;;;;;;3.50;0.50;;;;;;;11.54;100.00;95639.94;5023657;28;24439;-72
2022/10/22 04:05:13;;;;;;;2.35;0.50;;;;;;;11.48;100.00;95642.13;5021057;28;24454;-72
2022/10/22 04:07:39;;;;;;;1.92;0.43;;;;;;;11.62;100.00;95648.00;5020148;28;24802;-74
2022/10/22 04:10:06;;;;;;;0.50;0.30;;;;;;;11.55;100.00;95640.75;5024087;28;24452;-72
2022/10/22 04:12:33;;;;;;;1.38;0.40;;;;;;;11.51;100.00;95650.53;5029100;28;24448;-72
2022/10/22 04:15:01;;;;;;;0.80;0.30;;;;;;;11.41;100.00;95659.03;5027879;28;24533;-76
2022/10/22 04:17:33;;;;;;;0.60;0.30;;;;;;;11.34;100.00;95656.84;5026725;28;24440;-76
2022/10/22 04:19:59;;;;;;;2.58;0.50;;;;;;;11.29;100.00;95668.47;5026851;28;25329;-76
2022/10/22 04:22:26;;;;;;;2.40;0.35;;;;;;;11.22;100.00;95665.44;5028927;28;24451;-74
2022/10/22 04:24:52;;;;;;;1.52;0.45;;;;;;;11.19;100.00;95667.41;5027809;28;24571;-75
2022/10/22 04:27:19;;;;;;;0.95;0.47;;;;;;;11.26;100.00;95674.69;5028985;28;25413;-74
2022/10/22 04:29:45;;;;;;;2.40;0.30;;;;;;;11.29;100.00;95671.88;5022750;28;24500;-75
2022/10/22 04:32:13;;;;;;;1.33;0.40;;;;;;;11.28;100.00;95679.78;5021729;28;24453;-74
2022/10/22 04:34:40;;;;;;;0.65;0.40;;;;;;;11.25;100.00;95665.25;5025475;28;24440;-75
2022/10/22 04:37:06;;;;;;;1.48;0.40;;;;;;;11.19;100.00;95675.19;5017940;28;24451;-75
2022/10/22 04:39:33;;;;;;;1.30;0.30;;;;;;;11.24;100.00;95663.59;5028369;28;24440;-75
2022/10/22 04:41:59;;;;;;;0.60;0.40;;;;;;;11.30;100.00;95659.75;5029065;28;24436;-75
2022/10/22 04:44:26;;;;;;;1.52;0.47;;;;;;;11.22;100.00;95660.25;5024344;28;24432;-74
2022/10/22 04:46:52;;;;;;;1.67;0.50;;;;;;;11.29;100.00;95668.47;5023843;28;24942;-74
2022/10/22 04:49:20;;;;;;;2.00;0.50;;;;;;;11.30;100.00;95673.53;5026942;28;24454;-75
2022/10/22 04:51:46;;;;;;;2.13;0.70;;;;;;;11.35;100.00;95681.03;5023924;28;24464;-75
2022/10/22 04:54:13;;;;;;;2.00;0.50;;;;;;;11.36;100.00;95680.91;5023382;28;25044;-75
2022/10/22 04:56:39;;;;;;;0.52;0.30;;;;;;;11.31;100.00;95685.59;5019276;28;24452;-75
2022/10/22 04:59:08;;;;;;;0.80;0.35;;;;;;;11.28;100.00;95675.41;5027906;28;24790;-75
2022/10/22 05:01:36;;;;;;;1.23;0.55;;;;;;;11.25;100.00;95682.56;5025609;28;24447;-75
2022/10/22 05:04:05;;;;;;;0.73;0.40;;;;;;;11.22;100.00;95681.00;5024906;28;24431;-75
2022/10/22 05:06:35;;;;;;;1.20;0.43;;;;;;;11.22;100.00;95682.78;5023033;28;24438;-74
2022/10/22 05:09:05;;;;;;;1.23;0.33;;;;;;;11.28;100.00;95682.38;5021967;28;25039;-75
2022/10/22 05:11:33;;;;;;;1.85;0.60;;;;;;;11.21;100.00;95676.75;5028310;28;24454;-75
2022/10/22 05:14:02;;;;;;;2.80;0.60;;;;;;;11.11;100.00;95681.72;5020550;28;24466;-75
2022/10/22 05:16:29;;;;;;;1.33;0.52;;;;;;;11.05;100.00;95682.13;5020518;28;24432;-74
2022/10/22 05:18:58;;;;;;;1.05;0.45;;;;;;;11.15;100.00;95688.34;5017596;28;24436;-75
2022/10/22 05:21:25;;;;;;;0.80;0.40;;;;;;;11.05;100.00;95686.47;5013223;28;24450;-74
2022/10/22 05:23:54;;;;;;;1.70;0.50;;;;;;;11.04;100.00;95684.81;5016595;28;25108;-75
2022/10/22 05:26:22;;;;;;;1.52;0.40;;;;;;;11.03;100.00;95693.53;5023889;28;24493;-73
2022/10/22 05:28:50;;;;;;;1.40;0.40;;;;;;;11.09;100.00;95693.97;5017600;28;24447;-74
2022/10/22 05:31:17;;;;;;;1.77;0.30;;;;;;;11.09;100.00;95693.97;5025798;28;24459;-74
2022/10/22 05:33:44;;;;;;;1.13;0.30;;;;;;;11.11;100.00;95692.06;5025071;28;24448;-75
2022/10/22 05:36:15;;;;;;;0.93;0.38;;;;;;;11.18;100.00;95697.69;5030948;28;24459;-75
2022/10/22 05:38:41;;;;;;;1.70;0.40;;;;;;;11.41;100.00;95710.88;5018358;28;24444;-74
2022/10/22 05:41:11;;;;;;;1.10;0.40;;;;;;;11.29;100.00;95708.19;5024516;28;24794;-76
2022/10/22 05:43:39;;;;;;;2.80;0.50;;;;;;;11.78;100.00;95714.41;5022777;28;24446;-76
2022/10/22 05:46:08;;;;;;;0.88;0.40;;;;;;;11.44;100.00;95721.06;5027029;28;24424;-75
2022/10/22 05:48:36;;;;;;;1.70;0.50;;;;;;;11.25;100.00;95730.06;5029491;28;24463;-74
2022/10/22 05:51:04;;;;;;;1.27;0.35;;;;;;;11.14;100.00;95722.16;5031583;28;24456;-75
2022/10/22 05:53:31;;;;;;;0.75;0.40;;;;;;;11.12;100.00;95726.59;5030162;28;24884;-75
2022/10/22 05:56:00;;;;;;;1.55;0.50;;;;;;;11.19;100.00;95727.03;5030858;28;24451;-74
2022/10/22 05:58:28;;;;;;;1.23;0.32;;;;;;;11.08;100.00;95725.16;5028229;28;24459;-74
2022/10/22 06:00:55;;;;;;;0.50;0.33;;;;;;;11.10;100.00;95734.50;5023756;28;24450;-75
2022/10/22 06:03:21;;;;;;;2.50;0.40;;;;;;;11.05;100.00;95731.38;5028038;28;24509;-74
2022/10/22 06:05:48;;;;;;;1.15;0.50;;;;;;;11.05;100.00;95730.53;5021862;28;24440;-75
2022/10/22 06:08:14;;;;;;;1.70;0.50;;;;;;;11.01;100.00;95729.91;5029842;28;24519;-74
2022/10/22 06:10:43;;;;;;;1.00;0.30;;;;;;;11.02;100.00;95734.16;5025275;28;24460;-76
2022/10/22 06:13:09;;;;;;;1.15;0.40;;;;;;;11.02;100.00;95738.53;5028950;28;25008;-75
2022/10/22 06:15:37;;;;;;;2.05;0.43;;;;;;;10.99;100.00;95741.31;5022902;28;24439;-74
2022/10/22 06:18:04;;;;;;;1.40;0.40;;;;;;;10.95;100.00;95735.50;5025657;28;24989;-74
2022/10/22 06:20:30;;;;;;;2.83;0.50;;;;;;;10.98;100.00;95729.28;5019837;28;24459;-74
2022/10/22 06:22:57;;;;;;;0.95;0.40;;;;;;;11.05;100.00;95736.56;5024428;28;24459;-74
2022/10/22 06:25:23;;;;;;;2.72;0.60;;;;;;;11.07;100.00;95744.22;5022487;28;24451;-74
2022/10/22 06:27:51;;;;;;;1.20;0.43;;;;;;;11.03;100.00;95756.56;5029670;28;24826;-74
2022/10/22 06:30:18;;;;;;;1.70;0.70;;;;;;;11.12;100.00;95755.13;5029545;28;24436;-75
2022/10/22 06:32:45;;;;;;;1.23;0.40;;;;;;;11.14;100.00;95767.06;5028797;28;24443;-74
2022/10/22 06:35:12;;;;;;;1.40;0.40;;;;;;;11.13;100.00;95774.94;5030071;28;24451;-74
2022/10/22 06:37:38;;;;;;;1.00;0.63;;;;;;;11.12;100.00;95781.03;5024741;28;24517;-74
2022/10/22 06:40:06;;;;;;;4.10;0.50;;;;;;;11.16;100.00;95779.94;5027384;28;24794;-73
2022/10/22 06:42:32;;;;;;;1.02;0.50;;;;;;;11.26;100.00;95778.38;5030372;28;24436;-74
2022/10/22 06:44:59;;;;;;;2.40;0.50;;;;;;;11.19;100.00;95794.44;5023891;28;24811;-71
2022/10/22 06:47:25;;;;;;;0.70;0.40;;;;;;;11.12;100.00;95794.00;5025857;28;24455;-72
2022/10/22 06:49:53;;;;;;;0.60;0.30;;;;;;;11.17;100.00;95797.13;5018557;28;24439;-73
2022/10/22 06:52:20;;;;;;;2.00;0.93;;;;;;;11.18;100.00;95805.75;5027597;28;24455;-72
2022/10/22 06:54:46;;;;;;;1.88;0.80;;;;;;;11.26;100.00;95809.50;5023119;28;24807;-74
2022/10/22 06:57:13;;;;;;;1.05;0.40;;;;;;;11.24;100.00;95821.75;5021247;28;24444;-72
2022/10/22 06:59:39;;;;;;;4.50;0.70;;;;;;;11.24;100.00;95821.75;5026157;28;24447;-72
2022/10/22 07:02:06;;;;;;;2.20;0.80;;;;;;;11.21;100.00;95818.50;5026612;28;24428;-72
2022/10/22 07:04:32;;;;;;;2.80;0.57;;;;;;;11.31;100.00;95819.56;5027735;28;24456;-73
2022/10/22 07:07:00;;;;;;;1.60;0.80;;;;;;;11.32;100.00;95827.25;5027429;28;24527;-73
2022/10/22 07:09:27;;;;;;;2.92;1.08;;;;;;;11.42;100.00;95837.00;5023121;28;24439;-73
2022/10/22 07:11:53;;;;;;;2.03;0.95;;;;;;;11.60;100.00;95841.00;5023878;28;24455;-73
2022/10/22 07:14:20;;;;;;;2.72;0.63;;;;;;;11.74;100.00;95848.72;5018890;28;24444;-73
2022/10/22 07:16:46;;;;;;;3.42;0.73;;;;;;;11.75;100.00;95842.56;5024966;28;24439;-72
2022/10/22 07:19:13;;;;;;;1.40;1.07;;;;;;;11.68;100.00;95840.50;5025887;28;24444;-73
2022/10/22 07:21:40;;;;;;;3.17;1.27;;;;;;;11.67;100.00;95850.03;5028396;28;25007;-73
2022/10/22 07:24:09;;;;;;;1.98;0.98;;;;;;;11.64;100.00;95852.84;5029418;28;24443;-73
2022/10/22 07:26:35;;;;;;;5.60;2.50;;;;;;;11.76;100.00;95848.63;5023321;28;24436;-73
2022/10/22 07:29:02;;;;;;;2.83;1.42;;;;;;;11.73;100.00;95849.66;5025831;28;24442;-73
2022/10/22 07:31:30;;;;;;;4.90;1.30;;;;;;;11.79;100.00;95854.44;5020770;28;24455;-72
2022/10/22 07:33:57;;;;;;;7.75;3.92;;;;;;;11.70;100.00;95849.03;5020257;28;24531;-72
2022/10/22 07:36:23;;;;;;;2.80;0.93;;;;;;;11.70;100.00;95864.59;5027620;28;24436;-71
2022/10/22 07:38:54;;;;;;;2.13;0.90;;;;;;;11.78;100.00;95860.53;5026465;28;24443;-71
2022/10/22 07:41:22;;;;;;;2.30;0.80;;;;;;;11.88;100.00;95860.81;5023121;28;24444;-71
2022/10/22 07:43:50;;;;;;;1.90;0.77;;;;;;;12.09;100.00;95866.34;5017250;28;24452;-71
2022/10/22 07:46:17;;;;;;;1.03;0.60;;;;;;;11.97;100.00;95864.53;5019434;28;25101;-71
2022/10/22 07:48:43;;;;;;;1.95;0.70;;;;;;;12.26;100.00;95866.00;5021883;28;24452;-71
2022/10/22 07:51:10;;;;;;;0.95;0.60;;;;;;;12.55;100.00;95863.19;5026143;28;25008;-68
2022/10/22 07:53:37;;;;;;;0.82;0.50;;;;;;;12.73;100.00;95861.91;5019242;28;24439;-70
2022/10/22 07:56:04;;;;;;;1.50;0.85;;;;;;;12.94;100.00;95874.34;5026960;28;24546;-70
2022/10/22 07:58:31;;;;;;;1.02;0.60;;;;;;;12.64;100.00;95878.13;5021446;28;24461;-70
2022/10/22 08:01:00;;;;;;;2.15;0.90;;;;;;;12.65;100.00;95876.41;5019455;28;24451;-70
2022/10/22 08:03:27;;;;;;;0.80;0.65;;;;;;;12.82;100.00;95878.63;5021854;28;24451;-70
2022/10/22 08:05:54;;;;;;;1.13;0.65;;;;;;;13.19;100.00;95882.06;5025813;28;24451;-71
2022/10/22 08:08:22;;;;;;;2.80;0.77;;;;;;;13.17;100.00;95888.34;5021982;28;24437;-70
2022/10/22 08:10:51;;;;;;;0.80;0.63;;;;;;;13.55;100.00;95878.63;5023783;28;24436;-70
2022/10/22 08:13:18;;;;;;;1.70;1.00;;;;;;;13.86;100.00;95880.75;5027104;28;24813;-70
2022/10/22 08:15:46;;;;;;;1.30;0.82;;;;;;;13.90;100.00;95880.38;5020480;28;24458;-71
2022/10/22 08:18:13;;;;;;;6.13;0.90;;;;;;;13.97;100.00;95885.97;5028522;28;24440;-72
2022/10/22 08:20:40;;;;;;;1.88;0.77;;;;;;;14.06;100.00;95880.09;5021632;28;24444;-71
2022/10/22 08:23:07;;;;;;;2.83;0.55;;;;;;;14.01;100.00;95880.41;5024244;28;24447;-72
2022/10/22 08:25:34;;;;;;;3.50;0.90;;;;;;;14.11;100.00;95879.75;5018340;28;24444;-71
2022/10/22 08:28:00;;;;;;;1.20;0.65;;;;;;;13.99;100.00;95884.09;5021305;28;24447;-71
2022/10/22 08:30:28;;;;;;;4.50;1.92;;;;;;;14.17;100.00;95880.13;5019758;28;24443;-71
2022/10/22 08:32:56;;;;;;;1.10;0.70;;;;;;;14.55;100.00;95889.44;5027244;28;25301;-71
2022/10/22 08:35:23;;;;;;;1.15;0.50;;;;;;;14.60;100.00;95886.47;5025943;28;24443;-70
2022/10/22 08:37:49;;;;;;;1.17;0.50;;;;;;;14.92;100.00;95887.41;5014891;28;24448;-70
2022/10/22 08:40:23;;;;;;;0.73;0.50;;;;;;;15.04;100.00;95898.66;5020916;28;24999;-70
2022/10/22 08:43:14;;;;;;;1.90;0.60;;;;;;;15.16;100.00;95900.28;5023024;28;24431;-71
2022/10/22 08:45:49;;;;;;;1.73;0.70;;;;;;;15.35;100.00;95901.44;5023058;28;24993;-70
2022/10/22 08:48:36;;;;;;;1.25;0.65;;;;;;;15.61;100.00;95894.97;5023292;28;24444;-70
2022/10/22 08:51:03;;;;;;;1.88;0.90;;;;;;;15.77;100.00;95897.19;5016200;28;24436;-70
2022/10/22 08:53:37;;;;;;;2.90;0.90;;;;;;;16.08;100.00;95894.69;5012770;28;24459;-70
2022/10/22 08:56:03;;;;;;;3.42;0.73;;;;;;;15.89;100.00;95897.97;5016521;28;24440;-70
2022/10/22 08:58:40;;;;;;;1.40;0.50;;;;;;;16.10;100.00;95896.22;5021114;28;24443;-70
2022/10/22 09:01:13;;;;;;;1.95;0.68;;;;;;;15.97;100.00;95906.84;5029987;28;24995;-72
2022/10/22 09:03:48;;;;;;;0.70;0.50;;;;;;;15.76;100.00;95905.16;5031013;28;24443;-70
2022/10/22 09:06:18;;;;;;;0.90;0.55;;;;;;;15.14;100.00;95912.66;5026276;28;24451;-70
2022/10/22 09:08:47;;;;;;;2.60;0.65;;;;;;;15.05;100.00;95913.34;5026249;28;24463;-70
2022/10/22 09:11:22;;;;;;;2.22;0.68;;;;;;;15.31;100.00;95915.69;5027049;28;24984;-70
2022/10/22 09:13:50;;;;;;;1.20;0.50;;;;;;;15.41;100.00;95909.63;5030844;28;25047;-70
2022/10/22 09:16:19;;;;;;;2.78;0.98;;;;;;;15.36;100.00;95922.22;5023771;28;25047;-70
2022/10/22 09:19:00;;;;;;;2.30;0.60;;;;;;;15.56;100.00;95915.38;5024268;28;24447;-70
2022/10/22 09:21:34;;;;;;;1.30;0.57;;;;;;;15.55;100.00;95924.19;5023414;28;24459;-70
2022/10/22 09:24:06;;;;;;;1.13;0.50;;;;;;;15.82;100.00;95928.97;5026639;28;24445;-70
2022/10/22 09:26:36;;;;;;;4.10;0.82;;;;;;;15.94;100.00;95924.53;5022170;28;24455;-70
2022/10/22 09:29:04;;;;;;;7.30;3.17;;;;;;;15.80;100.00;95925.69;5027753;28;24908;-70
2022/10/22 09:31:32;;;;;;;5.18;2.25;;;;;;;15.49;100.00;95932.50;5022603;28;24463;-70
2022/10/22 09:34:04;;;;;;;2.63;1.00;;;;;;;15.56;100.00;95932.84;5026757;28;24444;-72
2022/10/22 09:36:32;;;;;;;2.92;1.42;;;;;;;15.73;100.00;95935.78;5023829;28;24448;-71
2022/10/22 09:38:59;;;;;;;1.20;0.93;;;;;;;15.67;100.00;95943.28;5018359;28;24471;-71
2022/10/22 09:41:28;;;;;;;4.13;0.80;;;;;;;15.35;100.00;95937.97;5026125;28;24436;-70
2022/10/22 09:43:55;;;;;;;1.50;0.65;;;;;;;15.22;100.00;95945.94;5030327;28;24454;-70
2022/10/22 09:46:24;;;;;;;2.30;0.60;;;;;;;15.55;100.00;95945.06;5029873;28;24443;-70
2022/10/22 09:49:01;;;;;;;1.58;0.65;;;;;;;15.56;100.00;95946.72;5027790;28;24451;-70
2022/10/22 09:51:40;;;;;;;3.05;0.75;;;;;;;15.71;100.00;95940.28;5025941;28;24821;-70
2022/10/22 09:54:15;;;;;;;1.58;0.90;;;;;;;15.85;100.00;95949.63;5027924;28;24451;-71
2022/10/22 09:56:46;;;;;;;5.90;0.60;;;;;;;15.77;100.00;95946.81;5018335;28;24454;-70
2022/10/22 09:59:15;;;;;;;4.78;1.00;;;;;;;15.97;100.00;95948.63;5026893;28;25017;-72
2022/10/22 10:01:43;;;;;;;2.53;0.73;;;;;;;16.38;100.00;95943.56;5030949;28;24454;-71
2022/10/22 10:04:13;;;;;;;1.92;0.85;;;;;;;16.65;100.00;95951.72;5029358;28;24517;-72
2022/10/22 10:06:42;;;;;;;3.27;0.60;;;;;;;16.79;100.00;95962.84;5024236;28;24455;-71
2022/10/22 10:09:15;;;;;;;2.08;0.80;;;;;;;17.17;100.00;95955.19;5022261;28;24535;-71
2022/10/22 10:11:48;;;;;;;2.72;0.70;;;;;;;17.01;100.00;95957.44;5017934;28;24436;-72
2022/10/22 10:14:21;;;;;;;2.47;0.70;;;;;;;16.89;100.00;95964.53;5025034;28;24505;-71
2022/10/22 10:16:57;;;;;;;2.20;0.90;;;;;;;16.79;100.00;95962.84;5026129;28;25000;-71
2022/10/22 10:19:38;;;;;;;1.10;0.70;;;;;;;16.85;100.00;95976.22;5027627;28;25024;-72
2022/10/22 10:22:18;;;;;;;3.75;0.70;;;;;;;16.87;100.00;95973.47;5020435;28;24511;-71
2022/10/22 10:24:59;;;;;;;4.28;1.00;;;;;;;16.79;100.00;95975.91;5026766;28;24877;-71
2022/10/22 10:27:31;;;;;;;4.47;0.80;;;;;;;16.83;100.00;95978.13;5021654;28;24475;-70
2022/10/22 10:30:03;;;;;;;2.85;0.88;;;;;;;16.80;100.00;95982.81;5022136;28;24559;-70
2022/10/22 10:33:00;;;;;;;3.38;1.00;;;;;;;16.84;100.00;95982.44;5025949;28;25080;-70
2022/10/22 10:35:36;;;;;;;4.35;1.20;;;;;;;16.68;100.00;95980.22;5000872;28;24539;-69
2022/10/22 10:38:25;;;;;;;2.75;0.90;;;;;;;16.75;100.00;95979.75;5024047;28;24476;-71
2022/10/22 10:40:58;;;;;;;2.50;0.88;;;;;;;17.00;100.00;95984.56;5024911;28;24533;-70
2022/10/22 10:43:32;;;;;;;8.38;1.40;;;;;;;16.96;100.00;95985.78;5020466;28;24532;-70
2022/10/22 10:46:06;;;;;;;3.60;1.10;;;;;;;16.79;100.00;95979.34;5017463;28;24521;-70
2022/10/22 10:48:43;;;;;;;7.32;1.33;;;;;;;16.73;100.00;95986.88;5027748;28;24447;-70
2022/10/22 10:51:26;;;;;;;3.78;1.20;;;;;;;16.86;100.00;95984.91;5024828;28;24536;-71
2022/10/22 10:54:07;;;;;;;2.90;1.00;;;;;;;16.84;100.00;95984.22;5023061;28;24554;-71
2022/10/22 10:56:40;;;;;;;2.60;1.00;;;;;;;17.53;100.00;95986.97;5024355;28;24443;-71
2022/10/22 10:59:16;;;;;;;3.90;0.90;;;;;;;17.38;100.00;95978.66;5026707;28;24479;-71
2022/10/22 11:01:59;;;;;;;3.65;1.30;;;;;;;17.23;100.00;95973.91;5019904;28;24451;-71
2022/10/22 11:04:48;;;;;;;4.65;1.20;;;;;;;17.20;100.00;95967.16;5027587;28;24443;-71
2022/10/22 11:07:19;;;;;;;9.43;5.22;;;;;;;17.03;100.00;95973.84;5019170;28;24459;-71
2022/10/22 11:09:53;;;;;;;2.73;1.13;;;;;;;16.87;100.00;95979.56;5019398;28;24988;-71
2022/10/22 11:12:24;;;;;;;1.40;0.90;;;;;;;16.93;100.00;95978.19;5026397;28;24546;-71
2022/10/22 11:14:59;;;;;;;3.60;0.93;;;;;;;17.67;100.00;95973.50;5017675;28;25021;-72
2022/10/22 11:17:31;;;;;;;4.47;1.30;;;;;;;17.41;100.00;95972.31;5016990;28;24447;-72
2022/10/22 11:20:06;;;;;;;28.60;3.63;;;;;;;17.01;100.00;95964.47;5027940;28;24442;-73
2022/10/22 11:22:38;;;;;;;3.00;1.33;;;;;;;16.97;100.00;95970.91;5024736;28;24443;-72
2022/10/22 11:25:15;;;;;;;5.97;1.87;;;;;;;16.89;100.00;95977.63;5018406;28;24981;-71
2022/10/22 11:27:47;;;;;;;3.88;1.20;;;;;;;17.11;100.00;95975.81;5028568;28;24439;-72
2022/10/22 11:30:16;;;;;;;2.65;1.10;;;;;;;17.12;100.00;95969.59;5023050;28;24443;-71
2022/10/22 11:32:47;;;;;;;2.28;0.93;;;;;;;17.07;100.00;95975.22;5026393;28;24451;-71
2022/10/22 11:35:17;;;;;;;4.25;1.13;;;;;;;17.23;100.00;95976.53;5020991;28;25008;-72